Time;durP1;ratioP1;P1;durP2;ratioP2;P2;SDS_P1;SDS_P2;PMS_P1;PMS_P2;Temp;Humidity;BMP_temperature;BMP_pressure;BME280_temperature;BME280_humidity;BME280_pressure;Samples;Min_cycle;Max_cycle;Signal;HPM_P1;HPM_P2
2022/01/16 00:00:19;;;;;;;87.45;36.58;;;2.30;99.90;;;;;;5014783;28;20077;-71
2022/01/16 00:05:26;;;;;;;92.35;37.08;;;2.20;99.90;;;;;;5014954;28;20049;-71
2022/01/16 00:07:52;;;;;;;72.97;33.60;;;2.20;99.90;;;;;;5018314;28;20504;-71
2022/01/16 00:10:19;;;;;;;69.53;33.83;;;2.20;99.90;;;;;;5018343;28;20398;-71
2022/01/16 00:12:48;;;;;;;65.78;33.83;;;2.20;99.90;;;;;;5001750;28;20509;-71
2022/01/16 00:15:19;;;;;;;77.60;35.50;;;2.20;99.90;;;;;;5018339;28;20073;-71
2022/01/16 00:20:21;;;;;;;72.38;34.45;;;2.10;99.90;;;;;;5018205;28;20041;-72
2022/01/16 00:22:48;;;;;;;66.40;33.67;;;2.10;99.90;;;;;;5018162;28;20493;-71
2022/01/16 00:25:14;;;;;;;65.15;33.55;;;2.00;99.90;;;;;;5017991;28;20052;-71
2022/01/16 00:27:40;;;;;;;65.57;32.08;;;2.00;99.90;;;;;;5018096;28;20055;-71
2022/01/16 00:30:06;;;;;;;64.78;32.88;;;2.00;99.90;;;;;;5017719;28;20463;-71
2022/01/16 00:32:32;;;;;;;75.30;32.65;;;1.90;99.90;;;;;;5018622;28;20103;-71
2022/01/16 00:34:57;;;;;;;66.43;32.20;;;2.00;99.90;;;;;;5017806;28;20045;-71
2022/01/16 00:37:23;;;;;;;65.43;32.78;;;2.00;99.90;;;;;;5017709;28;20049;-71
2022/01/16 00:39:48;;;;;;;61.83;32.28;;;2.00;99.90;;;;;;5017549;28;20041;-71
2022/01/16 00:42:14;;;;;;;63.03;32.47;;;1.90;99.90;;;;;;5017602;28;20045;-71
2022/01/16 00:44:40;;;;;;;76.95;33.65;;;1.90;99.90;;;;;;5017545;28;20095;-71
2022/01/16 00:47:05;;;;;;;64.07;31.08;;;1.90;99.90;;;;;;5017839;28;20041;-71
2022/01/16 00:49:34;;;;;;;67.50;32.75;;;1.90;99.90;;;;;;5017661;28;20121;-71
2022/01/16 00:52:00;;;;;;;71.78;32.95;;;1.90;99.90;;;;;;5001120;28;20045;-71
2022/01/16 00:54:26;;;;;;;77.63;32.90;;;1.90;99.90;;;;;;5001160;28;20056;-71
2022/01/16 00:56:51;;;;;;;77.65;35.15;;;1.80;99.90;;;;;;5017410;28;20041;-71
2022/01/16 00:59:17;;;;;;;78.47;33.78;;;1.80;99.90;;;;;;5017279;28;20042;-71
2022/01/16 01:01:42;;;;;;;77.18;35.03;;;1.80;99.90;;;;;;5017536;28;20088;-71
2022/01/16 01:04:08;;;;;;;85.88;35.55;;;1.80;99.90;;;;;;5017147;28;20041;-71
2022/01/16 01:06:33;;;;;;;74.65;33.55;;;1.80;99.90;;;;;;5017212;28;20128;-71
2022/01/16 01:09:02;;;;;;;67.28;32.60;;;1.80;99.90;;;;;;5017068;28;20030;-71
2022/01/16 01:11:29;;;;;;;71.32;33.28;;;1.80;99.90;;;;;;5017076;28;20412;-71
2022/01/16 01:16:21;;;;;;;84.00;37.45;;;1.90;99.90;;;;;;5017266;28;20049;-71
2022/01/16 01:18:48;;;;;;;82.00;36.72;;;1.90;99.90;;;;;;5015778;28;20053;-71
2022/01/16 01:21:27;;;;;;;85.85;36.10;;;1.90;99.90;;;;;;5016779;28;20096;-71
2022/01/16 01:23:54;;;;;;;81.65;37.13;;;1.90;99.90;;;;;;5017009;28;20125;-71
2022/01/16 01:26:24;;;;;;;85.90;37.03;;;2.00;99.90;;;;;;5016764;28;20045;-71
2022/01/16 01:28:50;;;;;;;92.30;38.72;;;2.00;99.90;;;;;;5016769;28;20052;-71
2022/01/16 01:31:16;;;;;;;91.13;38.53;;;2.00;99.90;;;;;;5000364;28;20116;-71
2022/01/16 01:33:41;;;;;;;82.03;37.03;;;2.00;99.90;;;;;;5016915;28;20064;-71
2022/01/16 01:36:07;;;;;;;95.53;40.22;;;2.00;99.90;;;;;;5016885;28;20033;-71
2022/01/16 01:38:33;;;;;;;84.97;38.17;;;2.10;99.90;;;;;;5000312;28;20471;-71
2022/01/16 01:40:58;;;;;;;87.78;37.90;;;2.10;99.90;;;;;;5000199;28;20127;-71
2022/01/16 01:51:36;;;;;;;110.90;42.83;;;2.00;99.90;;;;;;5016569;28;20441;-71
2022/01/16 01:54:05;;;;;;;106.05;42.28;;;2.00;99.90;;;;;;5016250;28;20045;-71
2022/01/16 01:56:30;;;;;;;106.65;42.60;;;2.00;99.90;;;;;;4999920;28;20041;-71
2022/01/16 01:58:58;;;;;;;109.18;43.78;;;2.00;99.90;;;;;;4999792;28;20052;-71
2022/01/16 02:01:26;;;;;;;99.93;40.53;;;2.00;99.90;;;;;;4999850;28;20141;-71
2022/01/16 02:03:51;;;;;;;98.75;40.47;;;2.00;99.90;;;;;;5016033;28;20038;-71
2022/01/16 02:06:25;;;;;;;95.82;39.97;;;2.00;99.90;;;;;;5016339;28;20049;-71
2022/01/16 02:08:54;;;;;;;90.07;40.65;;;2.00;99.90;;;;;;5016184;28;20442;-71
2022/01/16 02:11:24;;;;;;;103.13;44.25;;;2.10;99.90;;;;;;5015951;28;20088;-71
2022/01/16 02:35:40;;;;;;;125.95;46.38;;;2.00;99.90;;;;;;5015647;28;20071;-71
2022/01/16 02:38:08;;;;;;;139.77;47.78;;;2.10;99.90;;;;;;5015589;28;20045;-71
2022/01/16 02:40:36;;;;;;;126.53;45.47;;;2.10;99.90;;;;;;5015528;28;20089;-71
2022/01/16 02:43:03;;;;;;;130.13;44.50;;;2.10;99.90;;;;;;5015718;28;20045;-71
2022/01/16 02:45:33;;;;;;;128.30;44.10;;;2.10;99.90;;;;;;5015460;28;20390;-71
2022/01/16 02:48:02;;;;;;;121.28;43.50;;;2.10;99.90;;;;;;5015517;28;20045;-71
2022/01/16 02:50:29;;;;;;;138.10;47.30;;;2.10;99.90;;;;;;5016161;28;20470;-71
2022/01/16 02:52:55;;;;;;;125.25;44.30;;;2.10;99.90;;;;;;5015621;28;20041;-71
2022/01/16 02:55:22;;;;;;;139.30;45.67;;;2.10;99.90;;;;;;5015414;28;20139;-71
2022/01/16 02:57:50;;;;;;;128.38;45.30;;;2.20;99.90;;;;;;5015659;28;20099;-71
2022/01/16 03:00:16;;;;;;;130.23;46.75;;;2.20;99.90;;;;;;5015250;28;20120;-71
2022/01/16 03:02:42;;;;;;;133.90;47.38;;;2.20;99.90;;;;;;4998845;28;20100;-71
2022/01/16 03:05:08;;;;;;;153.75;49.10;;;2.20;99.90;;;;;;4999159;28;20041;-71
2022/01/16 03:07:34;;;;;;;142.45;47.67;;;2.20;99.90;;;;;;5015365;28;20545;-71
2022/01/16 03:12:38;;;;;;;168.02;48.88;;;2.20;99.90;;;;;;5015545;28;20049;-71
2022/01/16 03:15:06;;;;;;;155.13;48.72;;;2.10;99.90;;;;;;5015504;28;20108;-71
2022/01/16 03:17:39;;;;;;;185.88;50.88;;;2.20;99.90;;;;;;4998841;28;20038;-71
2022/01/16 03:22:50;;;;;;;181.27;48.42;;;2.10;99.90;;;;;;5015319;28;19917;-71
2022/01/16 03:25:16;;;;;;;211.32;54.22;;;2.10;99.90;;;;;;5015323;28;20556;-71
2022/01/16 03:27:42;;;;;;;218.48;54.45;;;2.10;99.90;;;;;;5015055;28;20408;-71
2022/01/16 03:30:10;;;;;;;231.82;55.70;;;2.10;99.90;;;;;;4998443;28;20037;-71
2022/01/16 03:32:36;;;;;;;197.80;52.58;;;2.10;99.90;;;;;;4998746;28;20069;-71
2022/01/16 03:35:02;;;;;;;171.98;51.00;;;2.10;99.90;;;;;;5015351;28;20076;-71
2022/01/16 03:37:28;;;;;;;183.90;52.00;;;2.20;99.90;;;;;;5015236;28;20049;-71
2022/01/16 03:39:54;;;;;;;168.50;50.38;;;2.20;99.90;;;;;;5014932;28;20413;-71
2022/01/16 03:42:25;;;;;;;191.80;51.75;;;2.10;99.90;;;;;;5017814;28;20037;-71
2022/01/16 03:44:51;;;;;;;167.10;49.47;;;2.20;99.90;;;;;;5002323;28;20037;-71
2022/01/16 03:47:17;;;;;;;160.18;49.55;;;2.20;99.90;;;;;;5018826;28;20128;-71
2022/01/16 03:49:42;;;;;;;152.07;47.47;;;2.20;99.90;;;;;;5018597;28;20124;-71
2022/01/16 03:52:08;;;;;;;159.85;48.88;;;2.20;99.90;;;;;;5018829;28;20083;-71
2022/01/16 03:54:34;;;;;;;160.07;47.72;;;2.20;99.90;;;;;;5018594;28;20041;-71
2022/01/16 03:57:00;;;;;;;168.73;49.15;;;2.30;99.90;;;;;;5018766;28;20052;-71
2022/01/16 03:59:26;;;;;;;168.48;48.03;;;2.30;99.90;;;;;;5018647;28;20037;-71
2022/01/16 04:01:52;;;;;;;149.65;47.13;;;2.30;99.90;;;;;;5002043;28;20073;-71
2022/01/16 04:04:18;;;;;;;162.60;46.55;;;2.30;99.90;;;;;;5018271;28;20073;-71
2022/01/16 04:06:44;;;;;;;154.30;46.72;;;2.30;99.90;;;;;;5018553;28;20120;-71
2022/01/16 04:09:10;;;;;;;179.80;49.17;;;2.30;99.90;;;;;;5018264;28;20041;-71
2022/01/16 04:11:42;;;;;;;176.75;48.67;;;2.30;99.90;;;;;;5018182;28;20033;-71
2022/01/16 04:14:10;;;;;;;183.05;50.35;;;2.40;99.90;;;;;;5018247;28;20045;-71
2022/01/16 04:16:37;;;;;;;175.95;49.47;;;2.40;99.90;;;;;;5018338;28;20045;-71
2022/01/16 04:19:04;;;;;;;192.90;50.35;;;2.40;99.90;;;;;;5001676;28;20048;-71
2022/01/16 04:21:30;;;;;;;189.23;50.60;;;2.40;99.90;;;;;;5018163;28;20037;-71
2022/01/16 04:23:57;;;;;;;189.63;50.63;;;2.40;99.90;;;;;;5001599;28;20489;-71
2022/01/16 04:26:25;;;;;;;180.25;49.47;;;2.40;99.90;;;;;;5017884;28;20037;-71
2022/01/16 04:28:51;;;;;;;183.43;49.90;;;2.40;99.90;;;;;;5001580;28;20489;-71
2022/01/16 04:31:17;;;;;;;186.27;51.30;;;2.40;99.90;;;;;;5018037;28;20041;-71
2022/01/16 04:33:43;;;;;;;181.60;50.17;;;2.40;99.90;;;;;;5017751;28;20041;-71
2022/01/16 04:36:10;;;;;;;200.10;51.70;;;2.40;99.90;;;;;;5017999;28;20501;-71
2022/01/16 04:38:38;;;;;;;175.18;50.90;;;2.50;99.90;;;;;;5017684;28;20049;-72
2022/01/16 04:43:49;;;;;;;177.93;50.53;;;2.50;99.90;;;;;;5017514;28;20046;-71
2022/01/16 04:46:16;;;;;;;186.90;49.10;;;2.50;99.90;;;;;;5017555;28;20124;-71
2022/01/16 04:48:42;;;;;;;197.15;51.33;;;2.50;99.90;;;;;;5017498;28;20547;-71
2022/01/16 04:51:09;;;;;;;189.40;52.03;;;2.50;99.90;;;;;;5017733;28;20033;-71
2022/01/16 04:53:34;;;;;;;178.15;50.20;;;2.60;99.90;;;;;;5017133;28;20507;-71
2022/01/16 04:56:00;;;;;;;211.90;52.00;;;2.60;99.90;;;;;;5017391;28;20045;-72
2022/01/16 04:58:26;;;;;;;176.18;49.78;;;2.60;99.90;;;;;;5017655;28;20056;-71
2022/01/16 05:00:51;;;;;;;190.68;51.70;;;2.60;99.90;;;;;;5017248;28;20493;-71
2022/01/16 05:03:17;;;;;;;183.05;51.00;;;2.70;99.90;;;;;;5000859;28;20040;-71
2022/01/16 05:05:43;;;;;;;192.32;51.92;;;2.70;99.90;;;;;;5017288;28;20046;-71
2022/01/16 05:08:08;;;;;;;181.98;49.60;;;2.70;99.90;;;;;;5017174;28;20037;-72
2022/01/16 05:10:34;;;;;;;177.90;51.67;;;2.70;99.90;;;;;;5017348;28;20044;-71
2022/01/16 05:13:26;;;;;;;171.90;50.13;;;2.70;99.90;;;;;;5017071;28;20038;-71
2022/01/16 05:18:29;;;;;;;191.55;51.67;;;2.80;99.90;;;;;;5016950;28;20498;-71
2022/01/16 05:20:55;;;;;;;178.38;50.88;;;2.80;99.90;;;;;;5017130;28;20052;-71
2022/01/16 05:23:20;;;;;;;164.05;51.22;;;2.80;99.90;;;;;;5016853;28;20072;-71
2022/01/16 05:25:46;;;;;;;167.82;50.92;;;2.80;99.90;;;;;;5017125;28;20045;-71
2022/01/16 05:28:11;;;;;;;171.40;51.15;;;2.80;99.90;;;;;;5041967;22;20061;-70
2022/01/16 05:30:37;;;;;;;165.40;52.10;;;2.80;99.90;;;;;;5016801;28;20037;-70
2022/01/16 05:33:03;;;;;;;183.63;53.58;;;2.90;99.90;;;;;;5000408;28;20048;-70
2022/01/16 05:35:28;;;;;;;190.02;52.20;;;2.90;99.90;;;;;;5016693;28;20033;-70
2022/01/16 05:37:54;;;;;;;160.30;51.35;;;2.90;99.90;;;;;;5016566;28;20087;-70
2022/01/16 05:40:19;;;;;;;171.65;52.03;;;2.90;99.90;;;;;;5016597;28;20037;-70
2022/01/16 05:42:45;;;;;;;168.82;51.00;;;2.90;99.90;;;;;;5016599;28;20041;-70
2022/01/16 05:45:11;;;;;;;147.85;48.45;;;3.00;99.90;;;;;;5016465;28;20046;-70
2022/01/16 05:47:36;;;;;;;161.85;50.00;;;3.00;99.90;;;;;;5016544;28;20037;-70
2022/01/16 05:50:03;;;;;;;157.63;51.03;;;3.00;99.90;;;;;;5016428;28;20077;-70
2022/01/16 05:52:29;;;;;;;169.60;52.15;;;3.00;99.90;;;;;;5016252;28;20045;-70
2022/01/16 05:54:54;;;;;;;164.32;49.92;;;3.00;99.90;;;;;;5000262;28;20037;-70
2022/01/16 05:57:20;;;;;;;152.98;51.20;;;3.00;99.90;;;;;;5016239;28;20484;-70
2022/01/16 05:59:45;;;;;;;173.65;54.00;;;3.00;99.90;;;;;;5016543;28;20049;-70
2022/01/16 06:02:11;;;;;;;167.45;51.20;;;3.00;99.90;;;;;;5016169;28;20404;-70
2022/01/16 06:04:37;;;;;;;158.20;50.80;;;3.00;99.90;;;;;;5015485;28;20073;-70
2022/01/16 06:07:02;;;;;;;162.13;50.50;;;3.00;99.90;;;;;;5016030;28;20060;-70
2022/01/16 06:09:28;;;;;;;177.82;51.55;;;3.10;99.90;;;;;;4999701;28;20037;-70
2022/01/16 06:11:54;;;;;;;165.48;51.55;;;3.10;99.90;;;;;;5016030;28;20033;-70
2022/01/16 06:14:22;;;;;;;173.15;52.97;;;3.10;99.90;;;;;;4999663;28;20515;-70
2022/01/16 06:16:47;;;;;;;169.25;50.88;;;3.10;99.90;;;;;;5015847;28;20120;-70
2022/01/16 06:19:13;;;;;;;158.00;50.40;;;3.10;99.90;;;;;;5015935;28;20125;-70
2022/01/16 06:21:38;;;;;;;168.48;52.17;;;3.10;99.90;;;;;;5015842;28;20046;-70
2022/01/16 06:24:04;;;;;;;158.35;50.25;;;3.20;99.90;;;;;;5015756;28;20037;-70
2022/01/16 06:26:31;;;;;;;167.10;51.85;;;3.20;99.90;;;;;;5015627;28;20046;-70
2022/01/16 06:28:57;;;;;;;168.15;51.78;;;3.20;99.90;;;;;;5015982;28;20036;-70
2022/01/16 06:31:23;;;;;;;190.52;54.00;;;3.20;99.90;;;;;;4999662;28;20037;-70
2022/01/16 06:33:49;;;;;;;157.48;50.92;;;3.20;99.90;;;;;;5015676;28;20470;-70
2022/01/16 06:36:14;;;;;;;169.70;52.78;;;3.20;99.90;;;;;;5015912;28;20037;-70
2022/01/16 06:38:40;;;;;;;176.07;54.42;;;3.30;99.90;;;;;;5016366;28;20409;-70
2022/01/16 06:41:05;;;;;;;156.93;51.90;;;3.30;99.90;;;;;;4999244;28;20128;-70
2022/01/16 06:43:31;;;;;;;173.05;50.03;;;3.30;99.90;;;;;;5015751;28;20045;-70
2022/01/16 06:45:57;;;;;;;165.80;51.70;;;3.30;99.90;;;;;;5015458;28;20037;-70
2022/01/16 06:48:22;;;;;;;175.00;52.15;;;3.30;99.90;;;;;;5015683;28;20072;-70
2022/01/16 06:50:48;;;;;;;179.38;52.70;;;3.30;99.90;;;;;;5015726;28;20486;-70
2022/01/16 06:53:14;;;;;;;188.50;54.55;;;3.30;99.90;;;;;;5015458;28;20509;-70
2022/01/16 06:55:39;;;;;;;192.18;53.42;;;3.40;99.90;;;;;;5015741;28;20056;-70
2022/01/16 06:58:05;;;;;;;172.25;53.35;;;3.40;99.90;;;;;;5015642;28;20517;-70
2022/01/16 07:00:30;;;;;;;154.23;50.58;;;3.40;99.90;;;;;;5015420;28;20073;-70
2022/01/16 07:02:56;;;;;;;177.57;53.20;;;3.40;99.90;;;;;;4998951;28;20043;-70
2022/01/16 07:05:22;;;;;;;160.95;51.47;;;3.50;99.90;;;;;;4999017;28;20067;-70
2022/01/16 07:07:47;;;;;;;174.68;52.95;;;3.50;99.90;;;;;;4998967;28;20034;-70
2022/01/16 07:10:13;;;;;;;183.43;54.47;;;3.50;99.90;;;;;;5015263;28;20095;-70
2022/01/16 07:12:38;;;;;;;162.88;52.00;;;3.50;99.90;;;;;;5015622;28;20034;-70
2022/01/16 07:15:05;;;;;;;172.30;54.17;;;3.50;99.90;;;;;;5016353;28;20050;-70
2022/01/16 07:17:30;;;;;;;174.02;54.30;;;3.50;99.90;;;;;;5019202;28;20045;-70
2022/01/16 07:19:56;;;;;;;171.70;52.63;;;3.50;99.90;;;;;;5019585;28;20064;-70
2022/01/16 07:22:23;;;;;;;165.02;53.47;;;3.60;99.90;;;;;;5019146;28;20512;-70
2022/01/16 07:24:50;;;;;;;172.48;54.60;;;3.60;99.90;;;;;;5019027;28;20048;-70
2022/01/16 07:27:16;;;;;;;152.20;51.55;;;3.60;99.90;;;;;;5019166;28;20042;-70
2022/01/16 07:29:41;;;;;;;180.93;54.03;;;3.70;99.90;;;;;;5019293;28;20091;-70
2022/01/16 07:32:08;;;;;;;176.75;54.92;;;3.70;99.90;;;;;;5019087;28;20037;-70
2022/01/16 07:34:33;;;;;;;180.60;55.97;;;3.70;99.90;;;;;;5018914;28;20484;-70
2022/01/16 07:36:59;;;;;;;158.10;51.83;;;3.80;99.90;;;;;;5018903;28;20076;-70
2022/01/16 07:39:24;;;;;;;165.30;53.97;;;3.80;99.90;;;;;;5019113;28;20036;-70
2022/01/16 07:41:50;;;;;;;150.80;51.97;;;3.80;99.90;;;;;;5002548;28;20489;-70
2022/01/16 07:44:16;;;;;;;152.70;50.95;;;3.90;99.90;;;;;;5018864;28;20037;-70
2022/01/16 07:46:41;;;;;;;164.15;53.65;;;3.90;99.90;;;;;;5018949;28;20409;-71
2022/01/16 07:49:07;;;;;;;154.95;52.15;;;4.00;99.90;;;;;;5002355;28;20091;-70
2022/01/16 07:51:32;;;;;;;145.35;51.35;;;4.00;99.90;;;;;;5018642;28;20037;-70
2022/01/16 07:53:59;;;;;;;150.45;51.60;;;4.00;99.90;;;;;;5018599;28;20124;-70
2022/01/16 07:56:24;;;;;;;152.30;52.40;;;4.10;99.90;;;;;;5018523;28;20413;-70
2022/01/16 07:58:50;;;;;;;154.18;52.70;;;4.10;99.90;;;;;;5018459;28;20504;-70
2022/01/16 08:01:16;;;;;;;146.65;54.05;;;4.10;99.90;;;;;;5002148;28;20045;-70
2022/01/16 08:03:41;;;;;;;144.57;51.38;;;4.20;99.90;;;;;;5018345;28;20042;-70
2022/01/16 08:06:09;;;;;;;140.77;51.35;;;4.20;99.90;;;;;;5018359;28;20044;-70
2022/01/16 08:08:34;;;;;;;143.90;53.28;;;4.20;99.90;;;;;;5018218;28;20041;-70
2022/01/16 08:11:00;;;;;;;148.20;52.15;;;4.30;99.90;;;;;;5018588;28;20053;-70
2022/01/16 08:13:25;;;;;;;131.32;51.00;;;4.30;99.90;;;;;;5018495;28;20041;-70
2022/01/16 08:15:51;;;;;;;141.43;52.03;;;4.30;99.90;;;;;;5018234;28;20042;-70
2022/01/16 08:18:16;;;;;;;143.05;53.17;;;4.30;99.90;;;;;;5001801;28;20049;-70
2022/01/16 08:20:42;;;;;;;142.43;51.85;;;4.40;99.90;;;;;;5018182;28;20042;-69
2022/01/16 08:23:08;;;;;;;133.20;51.53;;;4.40;99.90;;;;;;5018152;28;20033;-70
2022/01/16 08:25:33;;;;;;;121.05;48.38;;;4.40;99.90;;;;;;5017948;28;20493;-70
2022/01/16 08:27:59;;;;;;;135.25;51.08;;;4.40;99.90;;;;;;5017157;28;20041;-70
2022/01/16 08:30:24;;;;;;;131.77;50.70;;;4.50;99.90;;;;;;5001663;28;20041;-70
2022/01/16 08:32:52;;;;;;;124.32;50.92;;;4.50;99.90;;;;;;5017892;28;20034;-70
2022/01/16 08:35:18;;;;;;;132.43;49.88;;;4.50;99.90;;;;;;5017851;28;20051;-70
2022/01/16 08:37:44;;;;;;;118.45;47.85;;;4.50;99.90;;;;;;5017670;28;20128;-70
2022/01/16 08:40:10;;;;;;;119.40;49.28;;;4.50;99.90;;;;;;5017771;28;20049;-70
2022/01/16 08:42:37;;;;;;;124.43;49.38;;;4.50;99.90;;;;;;5017571;28;20038;-70
2022/01/16 08:45:03;;;;;;;125.90;48.72;;;4.60;99.90;;;;;;5017602;28;20045;-70
2022/01/16 08:47:30;;;;;;;118.03;48.10;;;4.60;99.90;;;;;;5017513;28;20045;-70
2022/01/16 08:49:58;;;;;;;121.70;48.95;;;4.60;99.90;;;;;;5017549;28;20068;-70
2022/01/16 08:52:27;;;;;;;113.05;47.63;;;4.60;99.90;;;;;;5001437;28;20129;-70
2022/01/16 08:54:52;;;;;;;115.70;46.15;;;4.70;99.90;;;;;;5017665;28;20045;-70
2022/01/16 08:57:18;;;;;;;109.90;47.10;;;4.70;99.90;;;;;;5017604;28;20041;-70
2022/01/16 08:59:43;;;;;;;104.90;46.28;;;4.70;99.90;;;;;;5017424;28;20042;-70
2022/01/16 09:02:09;;;;;;;97.85;44.53;;;4.70;99.90;;;;;;5017328;28;20049;-70
2022/01/16 09:04:35;;;;;;;102.78;44.55;;;4.80;99.90;;;;;;5017217;28;20041;-70
2022/01/16 09:07:00;;;;;;;104.88;46.60;;;4.80;99.90;;;;;;5000897;28;20037;-70
2022/01/16 09:09:26;;;;;;;102.95;44.35;;;4.90;99.90;;;;;;5017292;28;20041;-70
2022/01/16 09:11:52;;;;;;;94.05;43.80;;;4.90;99.90;;;;;;5017243;28;20189;-70
2022/01/16 09:14:17;;;;;;;90.63;41.08;;;4.90;99.90;;;;;;5017113;28;20077;-70
2022/01/16 09:16:43;;;;;;;82.90;41.45;;;5.00;99.90;;;;;;5017043;28;20037;-70
2022/01/16 09:19:09;;;;;;;97.07;42.45;;;5.00;99.90;;;;;;5016963;28;20037;-70
2022/01/16 09:21:36;;;;;;;84.57;40.20;;;5.10;99.90;;;;;;5016951;28;20048;-70
2022/01/16 09:24:02;;;;;;;89.53;42.63;;;5.10;99.90;;;;;;5000439;28;20412;-70
2022/01/16 09:26:27;;;;;;;88.90;41.63;;;5.20;99.90;;;;;;5000892;28;20060;-70
2022/01/16 09:28:53;;;;;;;79.38;39.60;;;5.20;99.90;;;;;;5016716;28;20485;-70
2022/01/16 09:31:19;;;;;;;79.82;40.10;;;5.20;99.90;;;;;;5016748;28;20045;-70
2022/01/16 09:33:45;;;;;;;87.65;40.60;;;5.30;99.90;;;;;;5016659;28;20045;-70
2022/01/16 09:36:11;;;;;;;77.60;38.85;;;5.30;99.90;;;;;;5016709;28;20041;-70
2022/01/16 09:38:39;;;;;;;78.70;38.10;;;5.30;99.90;;;;;;5015844;28;20517;-70
2022/01/16 09:41:06;;;;;;;84.45;40.30;;;5.30;99.90;;;;;;5016650;28;20509;-70
2022/01/16 09:43:33;;;;;;;77.35;38.95;;;5.30;99.90;;;;;;5016605;28;20087;-70
2022/01/16 09:45:59;;;;;;;77.28;38.92;;;5.40;99.90;;;;;;5016492;28;20048;-69
2022/01/16 09:48:25;;;;;;;80.15;37.65;;;5.40;99.90;;;;;;5000026;28;20128;-69
2022/01/16 09:50:51;;;;;;;70.10;37.25;;;5.50;99.90;;;;;;5016495;28;20073;-70
2022/01/16 09:53:17;;;;;;;72.63;38.47;;;5.40;99.90;;;;;;5016296;28;20046;-70
2022/01/16 09:55:43;;;;;;;75.18;37.15;;;5.50;99.90;;;;;;5000018;28;20037;-70
2022/01/16 09:58:09;;;;;;;74.90;38.40;;;5.50;99.90;;;;;;4999871;28;20038;-70
2022/01/16 10:00:41;;;;;;;74.60;35.92;;;5.50;99.90;;;;;;5091515;28;20385;-70
2022/01/16 10:03:07;;;;;;;72.78;35.67;;;5.60;99.90;;;;;;5089411;28;20446;-70
2022/01/16 10:05:38;;;;;;;67.85;35.30;;;5.60;99.90;;;;;;5089743;28;20032;-70
2022/01/16 10:08:09;;;;;;;64.65;34.42;;;5.60;99.90;;;;;;5089282;28;20067;-71
2022/01/16 10:10:40;;;;;;;67.43;35.00;;;5.70;99.90;;;;;;5089481;28;20040;-71
2022/01/16 10:13:33;;;;;;;63.30;32.25;;;5.70;99.90;;;;;;5089321;28;20047;-71
2022/01/16 10:15:59;;;;;;;64.97;34.73;;;5.70;99.90;;;;;;5089278;28;20067;-71
2022/01/16 10:18:36;;;;;;;60.75;34.08;;;5.70;99.90;;;;;;5089301;28;20274;-71
2022/01/16 10:21:03;;;;;;;53.72;32.53;;;5.70;99.90;;;;;;5089182;28;20040;-71
2022/01/16 10:23:28;;;;;;;59.30;32.25;;;5.70;99.90;;;;;;5089367;28;20036;-71
2022/01/16 10:25:54;;;;;;;60.13;32.97;;;5.80;99.90;;;;;;5089217;28;20481;-71
2022/01/16 10:28:26;;;;;;;58.28;30.75;;;5.80;99.90;;;;;;5071946;28;20403;-71
2022/01/16 10:30:54;;;;;;;61.20;31.90;;;5.80;99.90;;;;;;5089166;28;20126;-71
2022/01/16 10:33:22;;;;;;;56.92;30.92;;;5.80;99.90;;;;;;5089862;28;20464;-72
2022/01/16 10:35:50;;;;;;;51.15;30.63;;;5.80;99.90;;;;;;5088799;28;20040;-71
2022/01/16 10:38:25;;;;;;;51.42;30.25;;;5.80;99.90;;;;;;5088915;28;20040;-71
2022/01/16 10:40:53;;;;;;;53.20;29.27;;;5.80;99.90;;;;;;5088754;28;20408;-71
2022/01/16 10:43:21;;;;;;;48.08;27.55;;;5.90;99.90;;;;;;5071824;28;20037;-71
2022/01/16 10:45:51;;;;;;;43.33;26.45;;;5.90;99.90;;;;;;5088675;28;20032;-71
2022/01/16 10:48:23;;;;;;;47.67;27.02;;;5.90;99.90;;;;;;5088723;28;20036;-69
2022/01/16 10:50:50;;;;;;;45.38;24.23;;;6.00;99.90;;;;;;5088887;28;20086;-70
2022/01/16 10:53:17;;;;;;;46.70;25.65;;;5.90;99.90;;;;;;5088462;28;20129;-70
2022/01/16 10:55:52;;;;;;;40.88;22.20;;;6.00;99.90;;;;;;5088453;28;20036;-70
2022/01/16 10:58:26;;;;;;;40.78;22.30;;;6.00;99.90;;;;;;5088188;28;20040;-70
2022/01/16 11:01:03;;;;;;;37.10;20.80;;;6.00;99.90;;;;;;5090229;28;20047;-69
2022/01/16 11:03:37;;;;;;;35.03;19.67;;;6.10;99.90;;;;;;5088367;28;20067;-70
2022/01/16 11:06:02;;;;;;;37.78;19.67;;;6.10;99.90;;;;;;5071456;28;20044;-70
2022/01/16 11:08:28;;;;;;;37.60;18.83;;;6.10;99.90;;;;;;5088300;28;20036;-70
2022/01/16 11:10:59;;;;;;;33.33;18.17;;;6.20;99.90;;;;;;5081604;28;20040;-70
2022/01/16 11:13:32;;;;;;;31.02;16.15;;;6.20;99.90;;;;;;5075037;28;20042;-70
2022/01/16 11:16:01;;;;;;;32.20;15.23;;;6.20;99.90;;;;;;5075371;28;20056;-70
2022/01/16 11:18:27;;;;;;;33.85;16.50;;;6.30;99.90;;;;;;5074366;28;20072;-71
2022/01/16 11:21:13;;;;;;;31.63;15.98;;;6.30;99.90;;;;;;5074507;28;20076;-70
2022/01/16 11:26:22;;;;;;;28.42;15.52;;;6.30;99.90;;;;;;5074787;28;20045;-70
2022/01/16 11:28:50;;;;;;;29.08;14.77;;;6.30;99.90;;;;;;5076301;28;20063;-69
2022/01/16 11:31:16;;;;;;;30.65;14.25;;;6.30;99.90;;;;;;5076252;28;20040;-69
2022/01/16 11:33:43;;;;;;;30.73;14.77;;;6.40;99.90;;;;;;5075321;28;20051;-68
2022/01/16 11:36:20;;;;;;;29.15;13.82;;;6.40;99.90;;;;;;5075058;28;20044;-68
2022/01/16 11:38:54;;;;;;;29.65;14.13;;;6.40;99.90;;;;;;5074665;28;20469;-68
2022/01/16 11:41:25;;;;;;;26.45;12.55;;;6.40;99.90;;;;;;5074672;28;20048;-68
2022/01/16 11:43:53;;;;;;;31.65;12.95;;;6.40;99.90;;;;;;5074610;28;20098;-68
2022/01/16 11:46:19;;;;;;;22.73;12.80;;;6.40;99.90;;;;;;5074590;28;20090;-68
2022/01/16 11:48:55;;;;;;;23.98;12.90;;;6.50;99.90;;;;;;5075000;28;20037;-69
2022/01/16 11:51:36;;;;;;;27.80;13.10;;;6.50;99.90;;;;;;5075435;28;20040;-69
2022/01/16 11:54:05;;;;;;;30.23;11.70;;;6.50;99.90;;;;;;5075018;28;20131;-70
2022/01/16 11:56:40;;;;;;;22.52;11.60;;;6.50;99.90;;;;;;5074878;28;20131;-70
2022/01/16 11:59:12;;;;;;;30.15;11.45;;;6.50;99.90;;;;;;5074067;28;20128;-69
2022/01/16 12:01:48;;;;;;;25.02;11.23;;;6.60;99.90;;;;;;5074199;28;20040;-69
2022/01/16 12:04:31;;;;;;;22.55;12.50;;;6.60;99.90;;;;;;5074217;28;20044;-69
2022/01/16 12:07:12;;;;;;;;;;;6.60;99.90;;;;;;5074393;28;20063;-69
2022/01/16 12:09:48;;;;;;;28.13;13.90;;;6.50;99.90;;;;;;5073902;28;20380;-69
2022/01/16 12:12:16;;;;;;;28.73;15.32;;;6.50;99.90;;;;;;5074126;28;20090;-69
2022/01/16 12:15:09;;;;;;;26.58;13.45;;;6.50;99.90;;;;;;5074018;28;20040;-69
2022/01/16 12:17:40;;;;;;;27.83;13.80;;;6.50;99.90;;;;;;5071026;28;20060;-69
2022/01/16 12:20:12;;;;;;;31.05;13.90;;;6.50;99.90;;;;;;5073559;28;20054;-69
2022/01/16 12:22:46;;;;;;;27.73;14.13;;;6.50;99.90;;;;;;5072563;28;20041;-69
2022/01/16 12:25:30;;;;;;;24.50;12.52;;;6.50;99.90;;;;;;5073466;28;20082;-70
2022/01/16 12:28:01;;;;;;;25.23;11.68;;;6.50;99.90;;;;;;5058050;28;20033;-71
2022/01/16 12:30:46;;;;;;;27.60;12.40;;;6.50;99.90;;;;;;5073740;28;20099;-70
2022/01/16 12:33:40;;;;;;;21.83;10.50;;;6.50;99.90;;;;;;5057230;28;20040;-70
2022/01/16 12:36:32;;;;;;;27.88;10.48;;;6.60;99.90;;;;;;5056697;28;20048;-70
2022/01/16 12:39:03;;;;;;;23.35;8.77;;;6.60;99.90;;;;;;5065740;28;20056;-71
2022/01/16 12:41:30;;;;;;;16.35;8.07;;;6.60;99.90;;;;;;5073097;28;20127;-71
2022/01/16 12:43:58;;;;;;;23.02;7.75;;;6.60;99.90;;;;;;5073453;28;20041;-70
2022/01/16 12:46:35;;;;;;;17.85;7.00;;;6.70;99.90;;;;;;5073462;28;20055;-70
2022/01/16 12:49:23;;;;;;;15.50;6.55;;;6.70;99.90;;;;;;5073062;28;20036;-70
2022/01/16 12:51:58;;;;;;;14.38;6.55;;;6.80;99.90;;;;;;5056064;28;20500;-70
2022/01/16 12:54:26;;;;;;;16.10;6.07;;;6.80;99.90;;;;;;5072989;28;20040;-70
2022/01/16 12:56:57;;;;;;;16.48;6.55;;;6.80;99.90;;;;;;5073744;28;20045;-70
2022/01/16 12:59:30;;;;;;;17.23;6.65;;;6.80;99.90;;;;;;5072577;28;20123;-70
2022/01/16 13:01:57;;;;;;;15.25;6.28;;;6.90;99.90;;;;;;5072933;28;20037;-70
2022/01/16 13:04:32;;;;;;;17.90;7.38;;;6.90;99.90;;;;;;5073157;28;20033;-70
2022/01/16 13:07:07;;;;;;;17.50;6.38;;;6.90;99.90;;;;;;5073270;28;20444;-71
2022/01/16 13:09:32;;;;;;;17.58;6.47;;;6.90;99.90;;;;;;5072584;28;20512;-71
2022/01/16 13:12:00;;;;;;;18.98;6.60;;;6.90;99.90;;;;;;5072609;28;20079;-71
2022/01/16 13:14:32;;;;;;;18.33;6.32;;;7.00;99.90;;;;;;5056219;28;20060;-71
2022/01/16 13:17:05;;;;;;;16.17;6.78;;;7.00;99.90;;;;;;5072571;28;20512;-71
2022/01/16 13:19:50;;;;;;;;;;;7.00;99.90;;;;;;5074480;28;20040;-70
2022/01/16 13:22:19;;;;;;;21.35;7.43;;;6.90;99.90;;;;;;5057632;28;19916;-71
2022/01/16 13:25:04;;;;;;;22.50;6.50;;;7.00;99.90;;;;;;5074440;28;20105;-71
2022/01/16 13:27:32;;;;;;;21.73;6.93;;;7.00;99.90;;;;;;5074493;28;20111;-71